Nearby METAR Reports

 

ENCN - Kristiansand/Kje, Norway
Distance from station: N 17km
Uppdaterad: 05/07/2022 20:20
Few Clouds
Few Clouds
 Vind från VNV
Vind: VNV 22 km/h
Temperatur: 17°C
Daggpunkt: 7°C
Luftfuktighet: 52%
Barometer: 1014 hPa
Clouds: Few Clouds
Visibility: 10 km
Cloud details: Few Clouds 1402 m
2022/07/05 18:20 ENCN 051820Z 30012KT 9999 FEW046 17/07 Q1014
EKSN - Sindal Airport, Denmark
Distance from station: OSO 145km
Uppdaterad: 30/12/2021 14:50
NOT Current
Mist, Övervägande molnigt
Mist, Övervägande molnigt
 Vind från SV
Vind: SV 26 km/h
Temperatur: 7°C
Wind Chill: 3°C
Daggpunkt: 7°C
Luftfuktighet: 100%
Barometer: 999 hPa
Summering: Mist
Clouds: Övervägande molnigt
Visibility: 5 km
Cloud details: Delvis molnigt 183 m
Övervägande molnigt 244 m
2021/12/30 13:50 EKSN 301350Z 23014KT 4500 BR SCT006 BKN008 07/07 Q0999
 
EKYT - Alborg, Denmark
Distance from station: SO 153km
Uppdaterad: 05/07/2022 20:20
Övervägande molnigt
Övervägande molnigt
 Vind från V
Vind: V 26 km/h
Temperatur: 15°C
Daggpunkt: 11°C
Luftfuktighet: 77%
Barometer: 1016 hPa
Clouds: Övervägande molnigt
Visibility: 10 km
Cloud details: Few Clouds 853 m
Övervägande molnigt 4267 m
2022/07/05 18:20 EKYT 051820Z AUTO 26014KT 9999 FEW028/// BKN140/// 15/11 Q1016
ENSN - Skien/Geiterygge, Norway
Distance from station: NO 153km
Uppdaterad: 09/11/2015 09:50
NOT Current
Klart
Klart
 Vind från SSV
Vind: SSV 19 km/h, Vindby: 41 km/h
Temperatur: 7°C
Wind Chill: 4°C
Daggpunkt: 3°C
Luftfuktighet: 76%
Barometer: 1000 hPa
Summering: Klart
Visibility: greater than 10 km
2015/11/09 08:50 ENSN 090850Z 20010G22KT 150V240 CAVOK 07/03 Q1000
 
ENZV - Stavanger/Sola(A, Norway
Distance from station: NV 166km
Uppdaterad: 05/07/2022 20:20
Övervägande molnigt
Övervägande molnigt
 Vind från NNV
Vind: NNV 33 km/h
Temperatur: 14°C
Daggpunkt: 7°C
Luftfuktighet: 63%
Barometer: 1018 hPa
Clouds: Övervägande molnigt
Visibility: 10 km
Cloud details: Few Clouds 853 m
Delvis molnigt 1615 m
Övervägande molnigt 2926 m
2022/07/05 18:20 ENZV 051820Z 33018KT 9999 FEW028 SCT053 BKN096 14/07 Q1018 NOSIG
ENNO - Notodden, Norway
Distance from station: NNO 182km
Uppdaterad: 05/07/2022 18:50
NOT Current
Klart
Klart
 Vind från VNV
Vind: VNV 7 km/h
Temperatur: 22°C
Daggpunkt: 6°C
Luftfuktighet: 36%
Barometer: 1010 hPa
Summering: Klart
Visibility: greater than 10 km
2022/07/05 16:50 ENNO 051650Z 30004KT 230V020 CAVOK 22/06 Q1010
 
ENTO - Torp (civ/Nor-Af, Norway
Distance from station: NO 183km
Uppdaterad: 05/07/2022 20:20
Few Clouds
Few Clouds
 Vind från SV
Vind: SV 13 km/h
Temperatur: 18°C
Daggpunkt: 8°C
Luftfuktighet: 52%
Barometer: 1010 hPa
Clouds: Few Clouds
Visibility: 10 km
Cloud details: Few Clouds 914 m
2022/07/05 18:20 ENTO 051820Z 22007KT 200V270 9999 FEW030 18/08 Q1010 NOSIG
EKKA - Karup (dan-Afb), Denmark
Distance from station: SSO 209km
Uppdaterad: 05/07/2022 20:33
Lätt regn, Showers, Övervägande molnigt
Lätt regn, Showers, Övervägande molnigt
 Vind från V
Vind: V 19 km/h
Temperatur: 13°C
Daggpunkt: 11°C
Luftfuktighet: 88%
Barometer: 1018 hPa
Summering: Lätt regn, Showers
Clouds: Övervägande molnigt
Visibility: 10 km
Cloud details: Few Clouds 549 m
Delvis molnigt 1067 m
Övervägande molnigt 1829 m
2022/07/05 18:33 EKKA 051833Z 28010KT 260V320 9999 -SHRA FEW018CB SCT035 BKN060 13/11 Q1018
 
ENHD - Haugesund/Karmoy, Norway
Distance from station: NV 216km
Uppdaterad: 05/07/2022 20:20
Övervägande molnigt
Övervägande molnigt
 Vind från NV
Vind: NV 26 km/h
Temperatur: 13°C
Daggpunkt: 7°C
Luftfuktighet: 67%
Barometer: 1018 hPa
Clouds: Övervägande molnigt
Visibility: 10 km
Cloud details: Few Clouds 884 m
Övervägande molnigt 1890 m
2022/07/05 18:20 ENHD 051820Z 31014KT 9999 FEW029 BKN062 13/07 Q1018
ENRY - Rygge (nor-Afb), Norway
Distance from station: NO 216km
Uppdaterad: 05/07/2022 20:20
Genommulet
Genommulet
 Vind från SV
Vind: SV 7 km/h
Temperatur: 18°C
Daggpunkt: 8°C
Luftfuktighet: 52%
Barometer: 1010 hPa
Clouds: Genommulet
Visibility: 10 km
Cloud details: Genommulet 3048 m
2022/07/05 18:20 ENRY 051820Z AUTO 23004KT 200V260 9999NDV OVC100/// 18/08 Q1010
 
ESGP - Goteborg/Save (a, Sweden
Distance from station: O 230km
Uppdaterad: 05/07/2022 20:20
Delvis molnigt
Delvis molnigt
 Vind från VSV
Vind: VSV 20 km/h
Temperatur: 15°C
Daggpunkt: 10°C
Luftfuktighet: 72%
Barometer: 1014 hPa
Clouds: Delvis molnigt
Visibility: 10 km
Cloud details: Delvis molnigt 853 m
2022/07/05 18:20 ESGP 051820Z 25011KT 9999 SCT028 15/10 Q1014
EKVJ - Stauning Airport, Denmark
Distance from station: S 233km
Uppdaterad: 05/07/2022 15:50
NOT Current
Övervägande molnigt
Övervägande molnigt
 Vind från V
Vind: V 31 km/h
Temperatur: 16°C
Daggpunkt: 10°C
Luftfuktighet: 68%
Barometer: 1018 hPa
Clouds: Övervägande molnigt
Visibility: 10 km
Cloud details: Delvis molnigt 914 m
Övervägande molnigt 1829 m
2022/07/05 13:50 EKVJ 051350Z 26017KT 9999 SCT030 BKN060 16/10 Q1018
 
ENSO - Stord/Soerstokke, Norway
Distance from station: NV 246km
Uppdaterad: 05/07/2022 18:50
NOT Current
Delvis molnigt
Delvis molnigt
 Vind från NV
Vind: NV 35 km/h
Temperatur: 13°C
Daggpunkt: 7°C
Luftfuktighet: 67%
Barometer: 1017 hPa
Clouds: Delvis molnigt
Visibility: 10 km
Cloud details: Few Clouds 610 m
Delvis molnigt 1067 m
2022/07/05 16:50 ENSO 051650Z 31019KT 9999 FEW020TCU SCT035 13/07 Q1017
EKAH - Tirstrup (civ/Mi, Denmark
Distance from station: SO 252km
Uppdaterad: 05/07/2022 20:20
Övervägande molnigt
Övervägande molnigt
 Vind från V
Vind: V 20 km/h
Temperatur: 17°C
Daggpunkt: 9°C
Luftfuktighet: 59%
Barometer: 1017 hPa
Clouds: Övervägande molnigt
Visibility: 10 km
Cloud details: Övervägande molnigt 1798 m
2022/07/05 18:20 EKAH 051820Z AUTO 26011KT 220V290 9999 BKN059/// 17/09 Q1017
 
ESGT - Trollhattan (pvt, Sweden
Distance from station: O 255km
Uppdaterad: 05/07/2022 20:20
Delvis molnigt
Delvis molnigt
 Vind från VSV
Vind: VSV 22 km/h
Temperatur: 15°C
Daggpunkt: 10°C
Luftfuktighet: 72%
Barometer: 1013 hPa
Clouds: Delvis molnigt
Visibility: 10 km
Cloud details: Few Clouds 823 m
Delvis molnigt 6706 m
2022/07/05 18:20 ESGT 051820Z AUTO 24012KT 220V280 9999 FEW027/// SCT220/// 15/10 Q1013
ESGG - Goteborg/Landvet, Sweden
Distance from station: O 257km
Uppdaterad: 05/07/2022 20:20
Övervägande molnigt
Övervägande molnigt
 Vind från VSV
Vind: VSV 20 km/h
Temperatur: 14°C
Daggpunkt: 9°C
Luftfuktighet: 72%
Barometer: 1014 hPa
Clouds: Övervägande molnigt
Visibility: 10 km
Cloud details: Övervägande molnigt 762 m
2022/07/05 18:20 ESGG 051820Z 25011KT 230V300 9999 BKN025 14/09 Q1014
 
EKBI - Billund Airport, Denmark
Distance from station: SSO 269km
Uppdaterad: 05/07/2022 20:20
Övervägande molnigt
Övervägande molnigt
 Vind från V
Vind: V 15 km/h
Temperatur: 15°C
Daggpunkt: 10°C
Luftfuktighet: 72%
Barometer: 1019 hPa
Clouds: Övervägande molnigt
Visibility: 10 km
Cloud details: Övervägande molnigt 792 m
2022/07/05 18:20 EKBI 051820Z AUTO 27008KT 9999 BKN026/// 15/10 Q1019
EKHN - Horns Rev B Heli, Denmark
Distance from station: S 274km
Uppdaterad: 09/08/2016 14:20
NOT Current
Few Clouds
Few Clouds
 Vind från VNV
Vind: VNV 50 km/h, Vindby: 72 km/h
Temperatur: 14°C
Daggpunkt: 10°C
Luftfuktighet: 77%
Barometer: 1018 hPa
Clouds: Few Clouds
Visibility: 10 km
Cloud details: Few Clouds 1158 m
Few Clouds 2438 m
2016/08/09 12:20 EKHN 091220Z AUTO 29027G39KT 270V340 9999NDV FEW038/// FEW080/// 14/10 Q1018
 
ESIB - Satenas (swe-Afb, Sweden
Distance from station: O 277km
Uppdaterad: 05/07/2022 20:20
Övervägande molnigt
Övervägande molnigt
 Vind från VSV
Vind: VSV 30 km/h
Temperatur: 16°C
Daggpunkt: 11°C
Luftfuktighet: 72%
Barometer: 1012 hPa
Clouds: Övervägande molnigt
Visibility: 10 km
Cloud details: Övervägande molnigt 823 m
Övervägande molnigt 4267 m
2022/07/05 18:20 ESIB 051820Z AUTO 24016KT 9999 BKN027/// BKN140/// 16/11 Q1012
EKHR - Horns Rev B Heli, Denmark
Distance from station: S 282km
Uppdaterad: 04/10/2016 06:20
NOT Current
Klart
Klart
 Vind från O
Vind: O 4 km/h
Temperatur: 11°C
Daggpunkt: -49°C
Luftfuktighet: 0%
Barometer: 1038 hPa
Clouds: Klart
Visibility: 10 km
2016/10/04 04:20 EKHR 040420Z AUTO 08002KT 9999NDV NCD 11/M49 Q1038